Time;durP1;ratioP1;P1;durP2;ratioP2;P2;SDS_P1;SDS_P2;PMS_P1;PMS_P2;Temp;Humidity;BMP_temperature;BMP_pressure;BME280_temperature;BME280_humidity;BME280_pressure;Samples;Min_cycle;Max_cycle;Signal;HPM_P1;HPM_P2
2023/02/21 02:14:17;;;;;;;9.93;5.63;;;4.10;99.90;;;;;;5035796;28;20311;-47
2023/02/21 02:16:51;;;;;;;9.63;5.80;;;4.00;99.90;;;;;;5043856;28;20208;-48
2023/02/21 02:19:47;;;;;;;9.20;6.10;;;3.90;99.90;;;;;;5035674;28;20262;-47
2023/02/21 02:22:54;;;;;;;8.20;6.30;;;3.90;99.90;;;;;;5031198;28;20639;-47
2023/02/21 02:25:56;;;;;;;10.50;6.33;;;3.90;99.90;;;;;;5013868;28;20199;-47
2023/02/21 02:28:42;;;;;;;8.57;5.83;;;3.80;99.90;;;;;;5025409;28;20201;-47
2023/02/21 02:31:40;;;;;;;9.67;6.30;;;3.80;99.90;;;;;;5040391;28;20219;-47
2023/02/21 02:34:34;;;;;;;9.27;6.50;;;3.70;99.90;;;;;;5033093;28;20279;-48
2023/02/21 02:37:08;;;;;;;7.93;6.80;;;3.60;99.90;;;;;;5036602;28;20294;-48
2023/02/21 02:39:45;;;;;;;10.97;6.30;;;3.60;99.90;;;;;;5031126;28;20263;-48
2023/02/21 02:42:24;;;;;;;12.20;6.93;;;3.50;99.90;;;;;;5037826;28;20282;-47
2023/02/21 02:44:57;;;;;;;11.63;6.30;;;3.50;99.90;;;;;;5035723;28;20634;-47
2023/02/21 02:47:28;;;;;;;10.70;7.80;;;3.50;99.90;;;;;;5043871;28;20202;-48
2023/02/21 02:49:59;;;;;;;12.93;6.90;;;3.60;99.90;;;;;;5044655;28;20223;-47
2023/02/21 02:52:26;;;;;;;5.57;5.07;;;3.70;99.90;;;;;;5048405;28;20258;-47
2023/02/21 02:54:58;;;;;;;6.67;5.90;;;3.70;99.90;;;;;;5039193;28;20331;-46
2023/02/21 02:57:27;;;;;;;9.33;6.47;;;3.80;99.90;;;;;;5040389;28;20343;-48
2023/02/21 02:59:54;;;;;;;11.53;6.60;;;3.90;99.90;;;;;;5046227;28;20198;-47
2023/02/21 03:02:41;;;;;;;7.87;6.27;;;4.00;99.90;;;;;;5044798;28;20216;-47
2023/02/21 03:05:24;;;;;;;8.03;6.07;;;3.90;99.90;;;;;;5046504;28;20262;-49
2023/02/21 03:07:59;;;;;;;8.13;6.23;;;3.80;99.90;;;;;;5036850;28;20211;-46
2023/02/21 03:10:36;;;;;;;6.37;5.77;;;3.70;99.90;;;;;;5030032;28;20301;-47
2023/02/21 03:13:09;;;;;;;12.00;7.53;;;3.60;99.90;;;;;;5033828;28;20231;-47
2023/02/21 03:15:40;;;;;;;11.43;6.60;;;3.50;99.90;;;;;;5040487;28;20253;-50
2023/02/21 03:18:14;;;;;;;12.77;7.83;;;3.50;99.90;;;;;;5039886;28;20204;-49
2023/02/21 03:20:44;;;;;;;12.43;6.93;;;3.40;99.90;;;;;;5041202;28;20257;-47
2023/02/21 03:23:13;;;;;;;8.43;7.57;;;3.40;99.90;;;;;;5042818;28;20700;-48
2023/02/21 03:25:42;;;;;;;10.73;7.13;;;3.40;99.90;;;;;;5033158;28;20205;-49
2023/02/21 03:28:09;;;;;;;11.53;7.33;;;3.30;99.90;;;;;;5029847;28;20204;-47
2023/02/21 03:30:36;;;;;;;9.33;7.43;;;3.30;99.90;;;;;;5040880;28;20727;-49
2023/02/21 03:35:36;;;;;;;9.67;6.43;;;3.20;99.90;;;;;;5044260;28;20201;-48
2023/02/21 03:38:04;;;;;;;9.53;6.27;;;3.20;99.90;;;;;;5043961;28;20664;-49
2023/02/21 03:40:33;;;;;;;12.07;7.57;;;3.10;99.90;;;;;;5043738;28;20802;-49
2023/02/21 03:43:04;;;;;;;7.30;6.43;;;3.00;99.90;;;;;;5036486;28;20705;-48
2023/02/21 03:45:31;;;;;;;8.30;6.63;;;3.10;99.90;;;;;;5031591;28;20210;-47
2023/02/21 03:47:58;;;;;;;9.93;5.97;;;3.00;99.90;;;;;;5029612;28;20260;-47
2023/02/21 03:50:25;;;;;;;8.27;6.33;;;3.10;99.90;;;;;;5032807;28;20269;-47
2023/02/21 03:52:52;;;;;;;9.50;6.77;;;3.10;99.90;;;;;;5043419;28;20280;-47
2023/02/21 03:55:20;;;;;;;11.80;7.73;;;3.00;99.90;;;;;;5037917;28;20278;-47
2023/02/21 03:57:47;;;;;;;8.63;6.73;;;3.00;99.90;;;;;;5034456;28;20274;-47
2023/02/21 04:00:15;;;;;;;6.23;5.70;;;3.00;99.90;;;;;;5035907;28;20204;-48
2023/02/21 04:02:42;;;;;;;9.20;5.83;;;3.00;99.90;;;;;;5039342;28;20219;-47
2023/02/21 04:05:09;;;;;;;11.03;7.87;;;2.90;99.90;;;;;;5032103;28;20208;-47
2023/02/21 04:07:39;;;;;;;8.10;7.30;;;2.90;99.90;;;;;;5032594;28;20208;-47
2023/02/21 04:10:06;;;;;;;7.37;6.50;;;2.90;99.90;;;;;;5042132;28;20205;-46
2023/02/21 04:12:38;;;;;;;9.17;6.97;;;2.80;99.90;;;;;;5037226;28;20230;-47
2023/02/21 04:15:06;;;;;;;8.50;6.17;;;2.80;99.90;;;;;;5044739;28;20273;-48
2023/02/21 04:17:33;;;;;;;7.57;6.73;;;2.70;99.90;;;;;;5040861;28;20226;-47
2023/02/21 04:20:00;;;;;;;7.40;6.37;;;2.70;99.90;;;;;;5037086;28;20197;-47
2023/02/21 04:22:27;;;;;;;13.67;7.03;;;2.70;99.90;;;;;;5037210;28;20267;-48
2023/02/21 04:24:54;;;;;;;9.37;6.07;;;2.60;99.90;;;;;;5031694;28;20208;-47
2023/02/21 04:27:21;;;;;;;8.53;6.27;;;2.60;99.90;;;;;;5030359;28;20628;-47
2023/02/21 04:29:49;;;;;;;7.80;6.37;;;2.60;99.90;;;;;;5030398;28;20215;-48
2023/02/21 04:32:16;;;;;;;9.37;7.27;;;2.60;99.90;;;;;;5030271;28;20236;-47
2023/02/21 04:34:43;;;;;;;8.43;6.70;;;2.50;99.90;;;;;;5039140;28;20199;-48
2023/02/21 04:37:10;;;;;;;12.67;7.20;;;2.50;99.90;;;;;;5038492;28;20198;-48
2023/02/21 04:39:37;;;;;;;8.53;7.10;;;2.40;99.90;;;;;;5042787;28;20915;-48
2023/02/21 04:42:04;;;;;;;10.20;6.63;;;2.40;99.90;;;;;;5040181;28;20800;-47
2023/02/21 04:44:31;;;;;;;8.90;6.60;;;2.40;99.90;;;;;;5040993;28;20195;-49
2023/02/21 04:46:59;;;;;;;9.23;6.93;;;2.40;99.90;;;;;;5028933;28;20199;-48
2023/02/21 04:49:27;;;;;;;9.93;6.17;;;2.40;99.90;;;;;;5033690;28;20200;-47
2023/02/21 04:51:54;;;;;;;9.07;6.07;;;2.40;99.90;;;;;;5038124;28;20223;-48
2023/02/21 04:54:21;;;;;;;10.57;7.23;;;2.30;99.90;;;;;;5040140;28;20207;-49
2023/02/21 04:56:48;;;;;;;9.00;7.03;;;2.30;99.90;;;;;;5032273;28;20208;-49
2023/02/21 04:59:15;;;;;;;10.10;6.70;;;2.30;99.90;;;;;;5041778;28;20404;-47
2023/02/21 05:01:42;;;;;;;8.43;6.07;;;2.30;99.90;;;;;;5043080;28;20199;-47
2023/02/21 05:04:10;;;;;;;6.27;5.77;;;2.30;99.90;;;;;;5036507;28;20203;-48
2023/02/21 05:06:37;;;;;;;7.10;6.03;;;2.30;99.90;;;;;;5031945;28;20661;-49
2023/02/21 05:09:04;;;;;;;7.80;5.40;;;2.20;99.90;;;;;;5035352;28;20195;-47
2023/02/21 05:11:34;;;;;;;9.53;6.60;;;2.20;99.90;;;;;;5050974;28;20780;-47
2023/02/21 05:14:01;;;;;;;14.37;7.20;;;2.20;99.90;;;;;;5052206;28;20250;-47
2023/02/21 05:16:28;;;;;;;6.97;5.47;;;2.20;99.90;;;;;;5041258;28;20269;-47
2023/02/21 05:18:55;;;;;;;8.93;6.63;;;2.30;99.90;;;;;;5051651;28;20269;-47
2023/02/21 05:21:24;;;;;;;9.03;6.17;;;2.20;99.90;;;;;;5045895;28;20201;-48
2023/02/21 05:23:57;;;;;;;8.87;6.23;;;2.20;99.90;;;;;;5037644;28;20223;-47
2023/02/21 05:26:26;;;;;;;7.27;6.00;;;2.20;99.90;;;;;;5050504;28;20623;-46
2023/02/21 05:28:54;;;;;;;8.00;6.43;;;2.20;99.90;;;;;;5039528;28;20206;-48
2023/02/21 05:31:21;;;;;;;7.63;6.77;;;2.20;99.90;;;;;;5039716;28;20216;-47
2023/02/21 05:33:48;;;;;;;12.27;7.17;;;2.20;99.90;;;;;;5035694;28;20748;-46
2023/02/21 05:36:16;;;;;;;13.43;8.20;;;2.20;99.90;;;;;;5046494;28;20260;-48
2023/02/21 05:38:49;;;;;;;11.30;8.20;;;2.20;99.90;;;;;;5034340;28;20641;-46
2023/02/21 05:41:17;;;;;;;9.40;7.50;;;2.20;99.90;;;;;;5032086;28;20208;-46
2023/02/21 05:43:44;;;;;;;13.77;8.67;;;2.20;99.90;;;;;;5035184;28;20289;-47
2023/02/21 05:46:23;;;;;;;17.43;10.67;;;2.20;99.90;;;;;;5041921;28;20633;-49
2023/02/21 05:48:50;;;;;;;18.87;9.70;;;2.20;99.90;;;;;;5039421;28;20658;-48
2023/02/21 05:51:18;;;;;;;13.43;9.97;;;2.20;99.90;;;;;;5032584;28;20269;-48
2023/02/21 05:53:47;;;;;;;15.00;8.53;;;2.20;99.90;;;;;;5043541;28;20236;-48
2023/02/21 05:56:15;;;;;;;12.63;8.33;;;2.10;99.90;;;;;;5039141;28;20200;-47
2023/02/21 05:58:42;;;;;;;14.63;7.57;;;2.10;99.90;;;;;;5043717;28;20209;-49
2023/02/21 06:01:09;;;;;;;7.20;6.50;;;2.10;99.90;;;;;;5051016;28;20195;-45
2023/02/21 06:03:36;;;;;;;9.07;6.67;;;2.10;99.90;;;;;;5037409;28;20278;-46
2023/02/21 06:06:04;;;;;;;9.03;6.37;;;2.10;99.90;;;;;;5033845;28;20673;-48
2023/02/21 06:08:31;;;;;;;13.30;8.97;;;2.20;99.90;;;;;;5041913;28;20261;-48
2023/02/21 06:11:00;;;;;;;14.10;8.83;;;2.20;99.90;;;;;;5044932;28;20218;-48
2023/02/21 06:13:26;;;;;;;15.63;10.33;;;2.20;99.90;;;;;;5048182;28;20226;-47
2023/02/21 06:15:55;;;;;;;15.13;9.37;;;2.30;99.90;;;;;;5041978;28;20207;-48
2023/02/21 06:18:22;;;;;;;14.50;9.77;;;2.40;99.90;;;;;;5041373;28;20250;-47
2023/02/21 06:20:49;;;;;;;13.17;8.90;;;2.40;99.90;;;;;;5038951;28;20265;-47
2023/02/21 06:23:16;;;;;;;17.97;9.23;;;2.40;99.90;;;;;;5040185;28;20285;-48
2023/02/21 06:25:43;;;;;;;10.70;8.27;;;2.30;99.90;;;;;;5041068;28;20245;-46
2023/02/21 06:28:12;;;;;;;14.10;7.80;;;2.20;99.90;;;;;;5038402;28;20664;-47
2023/02/21 06:30:38;;;;;;;15.27;9.63;;;2.20;99.90;;;;;;5034649;28;20195;-47
2023/02/21 06:33:06;;;;;;;10.90;7.77;;;2.20;99.90;;;;;;5040937;28;20220;-48
2023/02/21 06:35:33;;;;;;;11.47;8.97;;;2.10;99.90;;;;;;5033910;28;20250;-47
2023/02/21 06:38:00;;;;;;;13.07;10.27;;;2.10;99.90;;;;;;5032682;28;20204;-47
2023/02/21 06:40:26;;;;;;;12.13;9.10;;;2.10;99.90;;;;;;5042469;28;20281;-48
2023/02/21 06:42:53;;;;;;;13.87;8.87;;;2.20;99.90;;;;;;5052923;28;20716;-47
2023/02/21 06:45:22;;;;;;;10.70;7.90;;;2.20;99.90;;;;;;5055051;28;20619;-47
2023/02/21 06:47:49;;;;;;;10.00;7.23;;;2.30;99.90;;;;;;5042741;28;20320;-46
2023/02/21 06:50:16;;;;;;;11.73;7.77;;;2.40;99.90;;;;;;5068536;22;20227;-47
2023/02/21 06:52:43;;;;;;;13.37;8.60;;;2.50;99.90;;;;;;5056864;28;20766;-49
2023/02/21 06:55:10;;;;;;;10.50;7.23;;;2.70;99.90;;;;;;5051645;28;20200;-49
2023/02/21 06:57:38;;;;;;;7.27;6.57;;;2.80;99.90;;;;;;5051723;28;20194;-48
2023/02/21 07:00:06;;;;;;;10.07;7.03;;;3.20;99.90;;;;;;5055562;28;20280;-48
2023/02/21 07:02:38;;;;;;;8.63;6.47;;;3.60;99.90;;;;;;5050989;28;20645;-50
2023/02/21 07:05:06;;;;;;;9.93;6.60;;;4.00;99.90;;;;;;5048318;28;20199;-49
2023/02/21 07:07:33;;;;;;;14.83;9.93;;;4.40;99.90;;;;;;5067965;28;20195;-48
2023/02/21 07:10:00;;;;;;;13.17;9.37;;;4.50;99.90;;;;;;5057168;28;20272;-48
2023/02/21 07:12:27;;;;;;;14.20;10.53;;;4.60;99.90;;;;;;5064323;28;20276;-49
2023/02/21 07:14:55;;;;;;;16.03;11.77;;;4.60;99.90;;;;;;5059377;28;20194;-49
2023/02/21 07:17:21;;;;;;;10.37;9.37;;;4.70;99.90;;;;;;5061146;28;20245;-50
2023/02/21 07:19:50;;;;;;;14.33;10.30;;;4.80;99.90;;;;;;5059577;28;20604;-48
2023/02/21 07:22:18;;;;;;;9.87;7.50;;;4.80;99.90;;;;;;5049198;28;20208;-48
2023/02/21 07:24:45;;;;;;;11.27;7.63;;;4.70;99.90;;;;;;5053353;28;20202;-47
2023/02/21 07:27:12;;;;;;;13.40;8.40;;;4.80;99.90;;;;;;5057269;28;20199;-48
2023/02/21 07:29:39;;;;;;;14.53;10.00;;;4.90;99.90;;;;;;5050897;28;20223;-48
2023/02/21 07:32:06;;;;;;;10.43;8.10;;;5.10;99.90;;;;;;5050959;28;20218;-48
2023/02/21 07:34:33;;;;;;;14.73;9.10;;;5.30;99.90;;;;;;5051044;28;20203;-48
2023/02/21 07:37:02;;;;;;;14.67;9.77;;;5.40;99.90;;;;;;5061329;28;20241;-48
2023/02/21 07:39:29;;;;;;;12.00;9.00;;;5.30;99.90;;;;;;5060928;28;20275;-49
2023/02/21 07:41:56;;;;;;;14.77;9.20;;;5.50;99.90;;;;;;5067685;28;20204;-48
2023/02/21 07:44:23;;;;;;;13.50;10.50;;;5.60;99.90;;;;;;5055601;28;20202;-48
2023/02/21 07:46:50;;;;;;;15.20;11.87;;;5.70;99.90;;;;;;5050048;28;20253;-47
2023/02/21 07:49:17;;;;;;;13.30;9.83;;;5.90;99.90;;;;;;5052667;28;20221;-48
2023/02/21 07:51:44;;;;;;;12.17;8.80;;;6.10;99.90;;;;;;5070097;28;20215;-47
2023/02/21 07:54:12;;;;;;;12.97;8.93;;;6.40;99.90;;;;;;5058365;28;20216;-47
2023/02/21 07:56:45;;;;;;;9.03;6.57;;;6.70;99.90;;;;;;5055628;28;20619;-47
2023/02/21 07:59:12;;;;;;;14.27;7.00;;;6.90;99.90;;;;;;5051114;28;20229;-50
2023/02/21 08:01:39;;;;;;;8.47;7.57;;;7.10;99.90;;;;;;5047354;28;20195;-47
2023/02/21 08:04:06;;;;;;;13.03;6.03;;;7.50;99.90;;;;;;5049623;28;20693;-48
2023/02/21 08:06:34;;;;;;;14.57;7.47;;;8.10;99.90;;;;;;5050925;28;20277;-48
2023/02/21 08:09:01;;;;;;;9.00;6.27;;;8.60;99.90;;;;;;5054860;28;20317;-49
2023/02/21 08:11:29;;;;;;;8.33;6.57;;;8.90;99.90;;;;;;5050845;28;20273;-48
2023/02/21 08:13:56;;;;;;;12.60;7.77;;;9.10;99.90;;;;;;5064677;28;20207;-47
2023/02/21 08:16:24;;;;;;;15.90;7.83;;;8.90;99.90;;;;;;5051909;28;20204;-46
2023/02/21 08:18:51;;;;;;;16.93;6.93;;;8.30;99.90;;;;;;5061851;28;20230;-49
2023/02/21 08:21:18;;;;;;;10.07;5.60;;;8.00;99.90;;;;;;5072290;28;20212;-46
2023/02/21 08:23:46;;;;;;;12.53;5.17;;;7.50;99.90;;;;;;5031097;28;20278;-46
2023/02/21 08:26:13;;;;;;;7.43;4.03;;;7.60;99.90;;;;;;5042015;28;20580;-47
2023/02/21 08:28:41;;;;;;;5.63;2.97;;;7.80;99.90;;;;;;5045927;28;20261;-48
2023/02/21 08:31:09;;;;;;;6.60;3.53;;;7.90;99.90;;;;;;5044049;28;20260;-48
2023/02/21 08:33:35;;;;;;;9.93;3.73;;;8.10;99.90;;;;;;5057934;28;20269;-48
2023/02/21 08:36:02;;;;;;;8.93;4.47;;;8.20;99.90;;;;;;5058125;28;20255;-48
2023/02/21 08:38:29;;;;;;;4.80;4.20;;;8.40;99.90;;;;;;5057203;28;20254;-47
2023/02/21 08:40:57;;;;;;;9.83;4.90;;;8.60;99.90;;;;;;5058497;28;20198;-48
2023/02/21 08:43:24;;;;;;;5.63;3.13;;;8.90;99.90;;;;;;5048806;28;20421;-47
2023/02/21 08:45:52;;;;;;;7.97;3.70;;;9.10;99.90;;;;;;5048200;28;20247;-47
2023/02/21 08:48:19;;;;;;;3.83;3.17;;;9.50;99.90;;;;;;5056322;28;20210;-50
2023/02/21 08:50:46;;;;;;;7.93;2.87;;;10.00;99.90;;;;;;5050803;28;20302;-48
2023/02/21 08:53:14;;;;;;;3.50;3.20;;;10.20;99.90;;;;;;5051077;28;20223;-48
2023/02/21 08:55:41;;;;;;;5.47;2.57;;;10.50;99.90;;;;;;5059747;28;20261;-49
2023/02/21 08:58:11;;;;;;;6.63;2.80;;;10.70;99.90;;;;;;5071323;28;20201;-48
2023/02/21 09:00:39;;;;;;;4.17;3.00;;;11.00;99.90;;;;;;5058466;28;20230;-49
2023/02/21 09:03:07;;;;;;;2.53;2.13;;;11.40;99.90;;;;;;5054740;28;20645;-50
2023/02/21 09:05:34;;;;;;;3.17;2.10;;;11.50;99.90;;;;;;5062991;28;20653;-49
2023/02/21 09:08:04;;;;;;;3.53;2.27;;;12.00;99.90;;;;;;5060679;28;20199;-48
2023/02/21 09:10:33;;;;;;;3.70;1.77;;;12.30;99.90;;;;;;5055706;28;20211;-50
2023/02/21 09:13:00;;;;;;;4.63;2.90;;;13.00;99.90;;;;;;5038941;28;20701;-49
2023/02/21 09:15:28;;;;;;;3.87;2.83;;;13.50;99.90;;;;;;5046451;28;20204;-49
2023/02/21 09:17:55;;;;;;;7.43;2.50;;;13.50;99.90;;;;;;5059317;28;20192;-49
2023/02/21 09:20:25;;;;;;;8.10;3.40;;;13.60;99.90;;;;;;5050682;28;20712;-50
2023/02/21 09:22:53;;;;;;;3.77;3.47;;;14.50;99.90;;;;;;5057672;28;20571;-48
2023/02/21 09:25:23;;;;;;;5.87;2.90;;;14.70;99.90;;;;;;5053515;28;20204;-49
2023/02/21 09:27:50;;;;;;;4.03;3.63;;;15.20;99.90;;;;;;5069211;28;20246;-49
2023/02/21 09:30:20;;;;;;;7.67;2.80;;;15.20;99.90;;;;;;5059568;28;20267;-49
2023/02/21 09:32:48;;;;;;;5.73;3.47;;;15.40;99.90;;;;;;5060371;28;20213;-49
2023/02/21 09:35:16;;;;;;;8.70;3.17;;;15.80;99.90;;;;;;5049857;28;20229;-49
2023/02/21 09:37:45;;;;;;;5.90;2.93;;;15.60;99.90;;;;;;5048440;28;20201;-50
2023/02/21 09:40:20;;;;;;;4.00;2.73;;;16.00;99.90;;;;;;5049552;28;20275;-50
2023/02/21 09:42:50;;;;;;;7.03;2.93;;;16.10;99.90;;;;;;5054463;28;20292;-48
2023/02/21 09:45:18;;;;;;;3.63;3.13;;;16.00;99.90;;;;;;5053465;28;20202;-50
2023/02/21 09:47:48;;;;;;;4.07;3.07;;;15.70;99.90;;;;;;5060880;28;20229;-48
2023/02/21 09:50:20;;;;;;;6.07;3.23;;;16.10;99.90;;;;;;5069527;28;20373;-49
2023/02/21 09:52:49;;;;;;;5.67;3.90;;;16.70;99.90;;;;;;5057879;28;20319;-49
2023/02/21 09:55:27;;;;;;;5.70;5.03;;;16.60;99.90;;;;;;5054830;28;20689;-49
2023/02/21 09:57:54;;;;;;;7.17;4.30;;;17.10;99.90;;;;;;5048479;28;20280;-49
2023/02/21 10:00:25;;;;;;;6.07;4.73;;;16.90;99.90;;;;;;5049504;28;20267;-49
2023/02/21 10:03:01;;;;;;;8.97;5.87;;;16.90;99.90;;;;;;5053784;28;20733;-48
2023/02/21 10:05:39;;;;;;;7.77;6.33;;;17.20;99.90;;;;;;5048503;28;20311;-47
2023/02/21 10:08:14;;;;;;;7.80;4.83;;;17.60;99.90;;;;;;5063506;28;20250;-48
2023/02/21 10:10:46;;;;;;;8.70;6.17;;;17.70;99.90;;;;;;5057915;28;20303;-48
2023/02/21 10:13:30;;;;;;;8.07;7.43;;;17.80;99.90;;;;;;5052947;28;20298;-49
2023/02/21 10:16:02;;;;;;;9.33;7.67;;;18.10;99.90;;;;;;5050321;28;20204;-47
2023/02/21 10:18:37;;;;;;;9.10;6.80;;;18.20;99.50;;;;;;5050541;28;20224;-48
2023/02/21 10:21:12;;;;;;;10.83;6.37;;;18.40;99.00;;;;;;5044782;28;20215;-47
2023/02/21 10:23:45;;;;;;;8.17;7.43;;;18.00;99.40;;;;;;5058536;28;20190;-47
2023/02/21 10:26:15;;;;;;;7.23;6.57;;;18.10;99.40;;;;;;5051520;28;20194;-48
2023/02/21 10:28:42;;;;;;;8.80;6.47;;;18.60;99.30;;;;;;5063228;28;20197;-47
2023/02/21 10:31:14;;;;;;;9.77;6.87;;;18.80;97.60;;;;;;5062849;28;20231;-49
2023/02/21 10:33:41;;;;;;;8.20;5.67;;;18.90;97.10;;;;;;5051461;28;20283;-49
2023/02/21 10:36:17;;;;;;;9.07;5.57;;;18.90;96.60;;;;;;5050986;28;20198;-51
2023/02/21 10:38:54;;;;;;;11.70;5.63;;;18.90;96.50;;;;;;5060415;28;20206;-50
2023/02/21 10:41:23;;;;;;;6.47;5.00;;;18.70;96.70;;;;;;5067821;28;20193;-49
2023/02/21 10:43:54;;;;;;;8.87;6.80;;;18.70;97.20;;;;;;5072852;28;20312;-49
2023/02/21 10:46:27;;;;;;;8.13;7.43;;;17.20;99.60;;;;;;5056935;28;20682;-50
2023/02/21 10:48:59;;;;;;;10.03;7.00;;;15.90;99.90;;;;;;5064986;28;20551;-49
2023/02/21 10:51:31;;;;;;;7.90;7.10;;;16.30;99.90;;;;;;5050658;28;20296;-49
2023/02/21 10:54:19;;;;;;;9.97;6.50;;;16.80;99.90;;;;;;5051040;28;20304;-50
2023/02/21 10:56:47;;;;;;;7.37;6.73;;;16.90;99.90;;;;;;5060654;28;20285;-49
2023/02/21 10:59:22;;;;;;;8.37;6.77;;;16.90;99.90;;;;;;5050210;28;20766;-50
2023/02/21 11:01:50;;;;;;;8.40;7.70;;;16.50;99.90;;;;;;5062906;28;20297;-49
2023/02/21 11:04:30;;;;;;;7.40;6.23;;;16.00;99.90;;;;;;5062716;28;20631;-50
2023/02/21 11:07:00;;;;;;;11.17;8.50;;;15.50;99.90;;;;;;5061480;28;20671;-48
2023/02/21 11:09:35;;;;;;;6.73;6.13;;;15.30;99.90;;;;;;5069350;28;20271;-49
2023/02/21 11:12:06;;;;;;;9.60;6.07;;;15.10;99.90;;;;;;5046887;28;20285;-49
2023/02/21 11:14:34;;;;;;;6.73;6.07;;;14.70;99.90;;;;;;5052799;28;20243;-49
2023/02/21 11:17:07;;;;;;;6.80;6.20;;;14.30;99.90;;;;;;5052950;28;20209;-49
2023/02/21 11:19:51;;;;;;;5.77;4.97;;;14.10;99.90;;;;;;5050154;28;20220;-48
2023/02/21 11:22:22;;;;;;;6.93;5.63;;;13.80;99.90;;;;;;5048973;28;20248;-49
2023/02/21 11:24:59;;;;;;;7.60;6.50;;;14.00;99.90;;;;;;5061523;28;20234;-48
2023/02/21 11:27:27;;;;;;;7.10;6.07;;;13.90;99.90;;;;;;5058865;28;20200;-50
2023/02/21 11:29:55;;;;;;;6.93;6.33;;;13.90;99.90;;;;;;5054004;28;20224;-49
2023/02/21 11:32:29;;;;;;;7.70;7.00;;;13.70;99.90;;;;;;5055335;28;20960;-49
2023/02/21 11:35:23;;;;;;;6.57;5.90;;;13.70;99.90;;;;;;5060029;28;20257;-49
2023/02/21 11:37:53;;;;;;;6.20;5.17;;;13.80;99.90;;;;;;5064528;28;20295;-48
2023/02/21 11:40:40;;;;;;;6.33;5.83;;;13.90;99.90;;;;;;5062408;28;20229;-49
2023/02/21 11:43:20;;;;;;;8.67;7.73;;;13.90;99.90;;;;;;5041616;28;20204;-50
2023/02/21 11:46:01;;;;;;;7.00;6.40;;;13.70;99.90;;;;;;5053173;28;20292;-49
2023/02/21 11:48:32;;;;;;;7.60;6.90;;;13.80;99.90;;;;;;5054569;28;20205;-49
2023/02/21 11:51:06;;;;;;;7.67;6.97;;;13.90;99.90;;;;;;5046733;28;20221;-49
2023/02/21 11:53:39;;;;;;;7.13;6.53;;;14.00;99.90;;;;;;5057078;28;20205;-49
2023/02/21 11:56:17;;;;;;;8.10;7.33;;;14.00;99.90;;;;;;5056437;28;20598;-48
2023/02/21 11:58:54;;;;;;;7.60;6.90;;;14.00;99.90;;;;;;5052425;28;20209;-48
2023/02/21 12:01:26;;;;;;;8.90;7.50;;;14.00;99.90;;;;;;5058047;28;20205;-49
2023/02/21 12:04:28;;;;;;;10.30;7.27;;;14.00;99.90;;;;;;5063744;28;20194;-50
2023/02/21 12:07:04;;;;;;;9.43;8.23;;;13.90;99.90;;;;;;5051510;28;20280;-48
2023/02/21 12:09:38;;;;;;;8.50;7.70;;;13.70;99.90;;;;;;5058506;28;20219;-49
2023/02/21 12:12:20;;;;;;;8.83;8.03;;;13.70;99.90;;;;;;5059609;28;20266;-48
2023/02/21 12:15:03;;;;;;;9.17;8.30;;;13.70;99.90;;;;;;5049707;28;20221;-50
2023/02/21 12:18:01;;;;;;;9.43;7.07;;;13.70;99.90;;;;;;5068404;28;20201;-50
2023/02/21 12:20:55;;;;;;;7.80;7.10;;;13.60;99.90;;;;;;5047613;28;20649;-50
2023/02/21 12:23:32;;;;;;;8.60;7.80;;;13.70;99.90;;;;;;5043595;28;20212;-49
2023/02/21 12:26:27;;;;;;;8.60;7.80;;;13.70;99.90;;;;;;5053695;28;20215;-50
2023/02/21 12:29:12;;;;;;;8.93;8.03;;;13.50;99.90;;;;;;5055849;28;20228;-49
2023/02/21 12:31:53;;;;;;;8.67;7.93;;;13.10;99.90;;;;;;5050491;28;20212;-48
2023/02/21 12:34:31;;;;;;;9.20;7.77;;;13.20;99.90;;;;;;5057587;28;20225;-49
2023/02/21 12:37:09;;;;;;;10.13;9.03;;;13.30;99.90;;;;;;5059642;28;20727;-49
2023/02/21 12:39:56;;;;;;;9.10;7.77;;;13.30;99.90;;;;;;5067108;28;20228;-49
2023/02/21 12:42:40;;;;;;;8.43;7.63;;;13.30;99.90;;;;;;5050310;28;20197;-50
2023/02/21 12:45:23;;;;;;;8.77;8.00;;;13.30;99.90;;;;;;5044795;28;20197;-49
2023/02/21 12:47:56;;;;;;;19.83;8.03;;;13.30;99.90;;;;;;5051523;28;20689;-48
2023/02/21 12:50:27;;;;;;;8.60;7.73;;;13.30;99.90;;;;;;5049680;28;20233;-48
2023/02/21 12:53:01;;;;;;;7.60;6.93;;;13.20;99.90;;;;;;5057273;28;20628;-48
2023/02/21 12:55:33;;;;;;;8.47;6.63;;;13.30;99.90;;;;;;5049612;28;20263;-49
2023/02/21 12:58:09;;;;;;;8.37;7.53;;;13.20;99.90;;;;;;5057761;28;20291;-49
2023/02/21 13:00:46;;;;;;;8.33;7.17;;;13.30;99.90;;;;;;5046727;28;20273;-51
2023/02/21 13:03:30;;;;;;;6.70;6.10;;;13.20;99.90;;;;;;5048784;28;20191;-48
2023/02/21 13:06:02;;;;;;;8.53;6.80;;;13.30;99.90;;;;;;5048139;28;20257;-50
2023/02/21 13:08:32;;;;;;;14.70;7.33;;;13.30;99.90;;;;;;5058862;28;20225;-50
2023/02/21 13:11:08;;;;;;;8.13;7.10;;;13.40;99.90;;;;;;5062610;28;20196;-48
2023/02/21 13:13:37;;;;;;;7.43;6.70;;;13.40;99.90;;;;;;5054906;28;20220;-51
2023/02/21 13:16:09;;;;;;;9.83;6.43;;;13.50;99.90;;;;;;5063529;28;20200;-49
2023/02/21 13:18:40;;;;;;;7.20;6.60;;;13.60;99.90;;;;;;5051005;28;20676;-50
2023/02/21 13:21:24;;;;;;;12.00;7.07;;;13.70;99.90;;;;;;5061004;28;20284;-51
2023/02/21 13:23:56;;;;;;;10.43;6.47;;;13.70;99.90;;;;;;5054974;28;20577;-50
2023/02/21 13:26:46;;;;;;;6.23;5.63;;;13.70;99.90;;;;;;5063055;28;20199;-50
2023/02/21 13:29:19;;;;;;;6.90;5.37;;;13.80;99.90;;;;;;5053531;28;20689;-49
2023/02/21 13:32:00;;;;;;;8.00;5.97;;;13.80;99.90;;;;;;5050168;28;20206;-49
2023/02/21 13:34:30;;;;;;;6.03;4.73;;;13.60;99.90;;;;;;5053613;28;20235;-49
2023/02/21 13:37:02;;;;;;;8.90;5.37;;;13.70;99.90;;;;;;5050189;28;20690;-49
2023/02/21 13:39:35;;;;;;;6.93;5.83;;;13.70;99.90;;;;;;5053013;28;20225;-49
2023/02/21 13:42:07;;;;;;;7.93;5.03;;;13.70;99.90;;;;;;5060865;28;20196;-49
2023/02/21 13:44:37;;;;;;;5.40;4.90;;;13.60;99.90;;;;;;5067762;28;20199;-48
2023/02/21 13:47:14;;;;;;;6.30;4.63;;;13.70;99.90;;;;;;5068168;28;20213;-49
2023/02/21 13:49:49;;;;;;;11.00;5.07;;;13.50;99.90;;;;;;5074906;28;20229;-48
2023/02/21 13:52:43;;;;;;;6.10;4.73;;;13.60;99.90;;;;;;5074890;28;20231;-49
2023/02/21 13:55:31;;;;;;;4.50;4.10;;;13.60;99.90;;;;;;5062577;28;20717;-50
2023/02/21 13:58:29;;;;;;;6.10;3.70;;;13.60;99.90;;;;;;5045724;28;20201;-48
2023/02/21 14:00:56;;;;;;;5.43;3.60;;;13.70;99.90;;;;;;5054381;28;20273;-49
2023/02/21 14:03:34;;;;;;;7.77;4.17;;;13.70;99.90;;;;;;5053636;28;20777;-48
2023/02/21 14:06:28;;;;;;;9.90;4.73;;;13.70;99.90;;;;;;5046115;28;20623;-47
2023/02/21 14:09:00;;;;;;;5.00;3.70;;;13.80;99.90;;;;;;5061434;28;20589;-51
2023/02/21 14:11:31;;;;;;;9.03;5.57;;;13.90;99.90;;;;;;5053696;28;20685;-48
2023/02/21 14:14:00;;;;;;;7.83;4.37;;;13.90;99.90;;;;;;5054138;28;20620;-50
2023/02/21 14:16:33;;;;;;;7.37;4.43;;;13.80;99.90;;;;;;5054452;28;20244;-50
2023/02/21 14:19:06;;;;;;;7.80;4.77;;;13.90;99.90;;;;;;5054166;28;20735;-50
2023/02/21 14:21:36;;;;;;;7.97;5.53;;;14.00;99.90;;;;;;5053064;28;20187;-50
2023/02/21 14:24:13;;;;;;;9.47;4.67;;;14.00;99.90;;;;;;5057384;28;20289;-50
2023/02/21 14:26:44;;;;;;;7.73;5.57;;;14.00;99.90;;;;;;5071680;28;20201;-50
2023/02/21 14:29:15;;;;;;;6.93;3.63;;;14.00;99.90;;;;;;5073993;28;20663;-48
2023/02/21 14:31:51;;;;;;;6.93;6.23;;;14.00;99.90;;;;;;5069581;28;20767;-48
2023/02/21 14:34:27;;;;;;;6.60;5.97;;;13.90;99.90;;;;;;5065372;28;20733;-48
2023/02/21 14:36:57;;;;;;;8.60;4.43;;;13.90;99.90;;;;;;5063571;28;20202;-47
2023/02/21 14:39:31;;;;;;;9.03;5.50;;;13.80;99.90;;;;;;5060396;28;20225;-47
2023/02/21 14:42:12;;;;;;;6.43;5.23;;;13.70;99.90;;;;;;5041738;28;20193;-47
2023/02/21 14:44:55;;;;;;;7.17;4.87;;;13.70;99.90;;;;;;5059537;28;20245;-48
2023/02/21 14:47:40;;;;;;;8.87;5.00;;;13.60;99.90;;;;;;5060739;28;20200;-48
2023/02/21 14:50:36;;;;;;;19.40;14.63;;;13.70;99.90;;;;;;5068153;28;20225;-48
2023/02/21 14:53:27;;;;;;;6.53;5.80;;;13.60;99.90;;;;;;5038836;28;20263;-51
2023/02/21 14:56:16;;;;;;;11.17;8.60;;;13.50;99.90;;;;;;5072428;28;20197;-48
2023/02/21 14:59:22;;;;;;;11.10;9.90;;;13.40;99.90;;;;;;5072712;28;20208;-49
2023/02/21 15:01:58;;;;;;;7.97;6.90;;;13.40;99.90;;;;;;5028489;28;20270;-48
2023/02/21 15:04:34;;;;;;;11.83;7.33;;;13.50;99.90;;;;;;5046453;28;20236;-49
2023/02/21 15:07:11;;;;;;;7.60;6.63;;;13.40;99.90;;;;;;5044365;28;20201;-48
2023/02/21 15:09:38;;;;;;;6.17;5.43;;;13.40;99.90;;;;;;5048225;28;20224;-48
2023/02/21 15:12:10;;;;;;;10.30;6.80;;;13.40;99.90;;;;;;5058083;28;20297;-48
2023/02/21 15:14:46;;;;;;;9.07;6.43;;;13.40;99.90;;;;;;5052049;28;20224;-48
2023/02/21 15:17:19;;;;;;;7.63;6.83;;;13.30;99.90;;;;;;5051806;28;20232;-47
2023/02/21 15:19:46;;;;;;;6.27;5.67;;;13.20;99.90;;;;;;5043664;28;20323;-48
2023/02/21 15:22:21;;;;;;;7.33;5.77;;;13.20;99.90;;;;;;5048243;28;20279;-48
2023/02/21 15:24:59;;;;;;;10.10;7.53;;;13.50;99.90;;;;;;5048929;28;20512;-48
2023/02/21 15:27:26;;;;;;;7.67;5.93;;;13.20;99.90;;;;;;5062732;28;20203;-48
2023/02/21 15:30:07;;;;;;;9.30;7.37;;;13.10;99.90;;;;;;5059967;28;20220;-49